sensor_id;sensor_type;location;lat;lon;timestamp;P1;durP1;ratioP1;P2;durP2;ratioP2
69305;SDS011;56427;51.580;4.656;2023-02-28T00:00:42;9.93;;;3.73;;
69305;SDS011;56427;51.580;4.656;2023-02-28T00:03:08;8.53;;;2.57;;
69305;SDS011;56427;51.580;4.656;2023-02-28T00:05:34;6.53;;;4.20;;
69305;SDS011;56427;51.580;4.656;2023-02-28T00:07:59;7.83;;;4.00;;
69305;SDS011;56427;51.580;4.656;2023-02-28T00:10:26;8.20;;;4.33;;
69305;SDS011;56427;51.580;4.656;2023-02-28T00:12:54;7.68;;;4.00;;
69305;SDS011;56427;51.580;4.656;2023-02-28T00:15:21;8.52;;;3.80;;
69305;SDS011;56427;51.580;4.656;2023-02-28T00:17:48;10.35;;;4.50;;
69305;SDS011;56427;51.580;4.656;2023-02-28T00:20:13;6.87;;;4.13;;
69305;SDS011;56427;51.580;4.656;2023-02-28T00:22:39;9.43;;;3.90;;
69305;SDS011;56427;51.580;4.656;2023-02-28T00:25:07;7.97;;;3.90;;
69305;SDS011;56427;51.580;4.656;2023-02-28T00:27:33;8.85;;;4.60;;
69305;SDS011;56427;51.580;4.656;2023-02-28T00:30:01;10.23;;;4.32;;
69305;SDS011;56427;51.580;4.656;2023-02-28T00:32:26;7.40;;;4.10;;
69305;SDS011;56427;51.580;4.656;2023-02-28T00:34:52;9.80;;;4.77;;
69305;SDS011;56427;51.580;4.656;2023-02-28T00:37:17;12.43;;;4.70;;
69305;SDS011;56427;51.580;4.656;2023-02-28T00:39:42;6.88;;;4.53;;
69305;SDS011;56427;51.580;4.656;2023-02-28T00:42:08;9.93;;;4.70;;
69305;SDS011;56427;51.580;4.656;2023-02-28T00:44:33;10.17;;;4.93;;
69305;SDS011;56427;51.580;4.656;2023-02-28T00:46:59;8.80;;;4.72;;
69305;SDS011;56427;51.580;4.656;2023-02-28T00:49:25;7.28;;;3.60;;
69305;SDS011;56427;51.580;4.656;2023-02-28T00:51:52;8.93;;;4.05;;
69305;SDS011;56427;51.580;4.656;2023-02-28T00:54:19;7.88;;;4.00;;
69305;SDS011;56427;51.580;4.656;2023-02-28T00:56:45;8.68;;;4.10;;
69305;SDS011;56427;51.580;4.656;2023-02-28T00:59:13;9.00;;;3.90;;
69305;SDS011;56427;51.580;4.656;2023-02-28T01:01:40;6.65;;;3.97;;
69305;SDS011;56427;51.580;4.656;2023-02-28T01:04:06;10.57;;;4.55;;
69305;SDS011;56427;51.580;4.656;2023-02-28T01:06:32;8.17;;;4.17;;
69305;SDS011;56427;51.580;4.656;2023-02-28T01:08:58;8.77;;;4.25;;
69305;SDS011;56427;51.580;4.656;2023-02-28T01:11:24;8.40;;;4.17;;
69305;SDS011;56427;51.580;4.656;2023-02-28T01:13:50;7.45;;;3.65;;
69305;SDS011;56427;51.580;4.656;2023-02-28T01:16:15;8.17;;;3.93;;
69305;SDS011;56427;51.580;4.656;2023-02-28T01:18:41;5.20;;;3.70;;
69305;SDS011;56427;51.580;4.656;2023-02-28T01:21:10;11.17;;;4.47;;
69305;SDS011;56427;51.580;4.656;2023-02-28T01:23:38;12.70;;;4.13;;
69305;SDS011;56427;51.580;4.656;2023-02-28T01:26:11;7.30;;;3.90;;
69305;SDS011;56427;51.580;4.656;2023-02-28T01:28:39;11.27;;;4.27;;
69305;SDS011;56427;51.580;4.656;2023-02-28T01:31:07;6.95;;;4.10;;
69305;SDS011;56427;51.580;4.656;2023-02-28T01:33:34;8.67;;;3.83;;
69305;SDS011;56427;51.580;4.656;2023-02-28T01:36:01;9.57;;;4.00;;
69305;SDS011;56427;51.580;4.656;2023-02-28T01:38:28;7.90;;;4.15;;
69305;SDS011;56427;51.580;4.656;2023-02-28T01:40:54;8.52;;;3.67;;
69305;SDS011;56427;51.580;4.656;2023-02-28T01:43:29;6.47;;;4.07;;
69305;SDS011;56427;51.580;4.656;2023-02-28T01:45:57;5.10;;;3.15;;
69305;SDS011;56427;51.580;4.656;2023-02-28T01:48:33;6.72;;;4.00;;
69305;SDS011;56427;51.580;4.656;2023-02-28T01:51:03;7.97;;;3.85;;
69305;SDS011;56427;51.580;4.656;2023-02-28T01:53:36;7.05;;;3.50;;
69305;SDS011;56427;51.580;4.656;2023-02-28T01:56:06;5.30;;;3.33;;
69305;SDS011;56427;51.580;4.656;2023-02-28T01:58:35;7.75;;;3.30;;
69305;SDS011;56427;51.580;4.656;2023-02-28T02:01:01;7.25;;;4.07;;
69305;SDS011;56427;51.580;4.656;2023-02-28T02:03:28;10.40;;;3.90;;
69305;SDS011;56427;51.580;4.656;2023-02-28T02:05:55;7.50;;;3.65;;
69305;SDS011;56427;51.580;4.656;2023-02-28T02:08:24;7.13;;;3.77;;
69305;SDS011;56427;51.580;4.656;2023-02-28T02:10:52;7.00;;;3.67;;
69305;SDS011;56427;51.580;4.656;2023-02-28T02:18:53;7.63;;;4.00;;
69305;SDS011;56427;51.580;4.656;2023-02-28T02:29:55;5.95;;;3.72;;
69305;SDS011;56427;51.580;4.656;2023-02-28T02:35:10;10.65;;;4.18;;
69305;SDS011;56427;51.580;4.656;2023-02-28T02:37:48;6.40;;;3.50;;
69305;SDS011;56427;51.580;4.656;2023-02-28T02:46:16;10.20;;;3.67;;
69305;SDS011;56427;51.580;4.656;2023-02-28T02:48:45;5.95;;;2.55;;
69305;SDS011;56427;51.580;4.656;2023-02-28T02:51:14;6.88;;;3.50;;
69305;SDS011;56427;51.580;4.656;2023-02-28T02:53:51;6.77;;;3.80;;
69305;SDS011;56427;51.580;4.656;2023-02-28T02:56:24;7.30;;;3.38;;
69305;SDS011;56427;51.580;4.656;2023-02-28T02:58:53;7.50;;;3.85;;
69305;SDS011;56427;51.580;4.656;2023-02-28T03:01:24;5.97;;;3.83;;
69305;SDS011;56427;51.580;4.656;2023-02-28T03:03:55;8.00;;;3.80;;
69305;SDS011;56427;51.580;4.656;2023-02-28T03:06:22;7.80;;;3.87;;
69305;SDS011;56427;51.580;4.656;2023-02-28T03:08:47;6.78;;;4.18;;
69305;SDS011;56427;51.580;4.656;2023-02-28T03:11:14;11.10;;;4.00;;
69305;SDS011;56427;51.580;4.656;2023-02-28T03:24:49;8.50;;;3.90;;
69305;SDS011;56427;51.580;4.656;2023-02-28T03:27:25;7.10;;;3.88;;
69305;SDS011;56427;51.580;4.656;2023-02-28T03:30:38;8.55;;;3.75;;
69305;SDS011;56427;51.580;4.656;2023-02-28T03:35:57;11.27;;;4.22;;
69305;SDS011;56427;51.580;4.656;2023-02-28T03:38:32;7.23;;;3.80;;
69305;SDS011;56427;51.580;4.656;2023-02-28T03:41:09;7.88;;;4.35;;
69305;SDS011;56427;51.580;4.656;2023-02-28T03:43:41;8.07;;;4.05;;
69305;SDS011;56427;51.580;4.656;2023-02-28T03:46:14;7.43;;;4.57;;
69305;SDS011;56427;51.580;4.656;2023-02-28T03:48:45;10.00;;;4.25;;
69305;SDS011;56427;51.580;4.656;2023-02-28T03:51:18;10.40;;;4.20;;
69305;SDS011;56427;51.580;4.656;2023-02-28T03:54:08;7.97;;;4.22;;
69305;SDS011;56427;51.580;4.656;2023-02-28T03:56:37;9.63;;;4.65;;
69305;SDS011;56427;51.580;4.656;2023-02-28T04:02:19;8.38;;;4.38;;
69305;SDS011;56427;51.580;4.656;2023-02-28T04:04:44;9.33;;;4.20;;
69305;SDS011;56427;51.580;4.656;2023-02-28T04:07:13;9.90;;;4.80;;
69305;SDS011;56427;51.580;4.656;2023-02-28T04:09:39;7.87;;;3.57;;
69305;SDS011;56427;51.580;4.656;2023-02-28T04:12:05;8.35;;;4.03;;
69305;SDS011;56427;51.580;4.656;2023-02-28T04:14:30;9.03;;;4.27;;
69305;SDS011;56427;51.580;4.656;2023-02-28T04:16:56;9.05;;;4.25;;
69305;SDS011;56427;51.580;4.656;2023-02-28T04:19:21;8.82;;;4.68;;
69305;SDS011;56427;51.580;4.656;2023-02-28T04:21:48;7.30;;;4.40;;
69305;SDS011;56427;51.580;4.656;2023-02-28T04:24:18;9.52;;;4.75;;
69305;SDS011;56427;51.580;4.656;2023-02-28T04:26:50;7.63;;;4.27;;
69305;SDS011;56427;51.580;4.656;2023-02-28T04:31:51;8.30;;;4.82;;
69305;SDS011;56427;51.580;4.656;2023-02-28T04:34:18;9.95;;;4.50;;
69305;SDS011;56427;51.580;4.656;2023-02-28T04:36:46;9.55;;;4.82;;
69305;SDS011;56427;51.580;4.656;2023-02-28T04:39:14;7.10;;;4.70;;
69305;SDS011;56427;51.580;4.656;2023-02-28T04:41:40;9.63;;;4.30;;
69305;SDS011;56427;51.580;4.656;2023-02-28T04:44:06;9.50;;;4.87;;
69305;SDS011;56427;51.580;4.656;2023-02-28T04:46:31;10.02;;;4.47;;
69305;SDS011;56427;51.580;4.656;2023-02-28T04:48:57;14.00;;;5.67;;
69305;SDS011;56427;51.580;4.656;2023-02-28T04:51:23;9.02;;;4.97;;
69305;SDS011;56427;51.580;4.656;2023-02-28T04:53:48;10.03;;;5.30;;
69305;SDS011;56427;51.580;4.656;2023-02-28T04:56:14;11.67;;;6.80;;
69305;SDS011;56427;51.580;4.656;2023-02-28T04:58:41;19.95;;;10.15;;
69305;SDS011;56427;51.580;4.656;2023-02-28T05:01:13;13.67;;;8.20;;
69305;SDS011;56427;51.580;4.656;2023-02-28T05:03:43;10.43;;;5.88;;
69305;SDS011;56427;51.580;4.656;2023-02-28T05:06:09;8.03;;;4.83;;
69305;SDS011;56427;51.580;4.656;2023-02-28T05:08:35;12.60;;;5.20;;
69305;SDS011;56427;51.580;4.656;2023-02-28T05:11:01;10.43;;;5.40;;
69305;SDS011;56427;51.580;4.656;2023-02-28T05:13:27;9.45;;;4.93;;
69305;SDS011;56427;51.580;4.656;2023-02-28T05:15:53;11.95;;;5.55;;
69305;SDS011;56427;51.580;4.656;2023-02-28T05:18:19;9.20;;;4.70;;
69305;SDS011;56427;51.580;4.656;2023-02-28T05:20:44;8.73;;;4.63;;
69305;SDS011;56427;51.580;4.656;2023-02-28T05:23:13;7.90;;;5.40;;
69305;SDS011;56427;51.580;4.656;2023-02-28T05:25:40;9.18;;;4.97;;
69305;SDS011;56427;51.580;4.656;2023-02-28T05:28:06;9.73;;;5.00;;
69305;SDS011;56427;51.580;4.656;2023-02-28T05:30:31;14.13;;;4.25;;
69305;SDS011;56427;51.580;4.656;2023-02-28T05:32:57;10.35;;;4.40;;
69305;SDS011;56427;51.580;4.656;2023-02-28T05:35:26;11.48;;;4.75;;
69305;SDS011;56427;51.580;4.656;2023-02-28T05:37:51;10.47;;;4.43;;
69305;SDS011;56427;51.580;4.656;2023-02-28T05:40:17;6.70;;;3.42;;
69305;SDS011;56427;51.580;4.656;2023-02-28T05:42:45;8.48;;;3.95;;
69305;SDS011;56427;51.580;4.656;2023-02-28T05:45:10;7.07;;;4.17;;
69305;SDS011;56427;51.580;4.656;2023-02-28T05:47:36;10.27;;;4.03;;
69305;SDS011;56427;51.580;4.656;2023-02-28T05:50:02;8.83;;;3.57;;
69305;SDS011;56427;51.580;4.656;2023-02-28T05:52:28;11.45;;;3.92;;
69305;SDS011;56427;51.580;4.656;2023-02-28T05:54:55;6.43;;;3.70;;
69305;SDS011;56427;51.580;4.656;2023-02-28T05:57:20;6.87;;;3.00;;
69305;SDS011;56427;51.580;4.656;2023-02-28T05:59:46;5.80;;;3.67;;
69305;SDS011;56427;51.580;4.656;2023-02-28T06:02:15;7.32;;;3.90;;
69305;SDS011;56427;51.580;4.656;2023-02-28T06:04:41;5.63;;;3.67;;
69305;SDS011;56427;51.580;4.656;2023-02-28T06:07:08;7.50;;;3.55;;
69305;SDS011;56427;51.580;4.656;2023-02-28T06:09:33;10.07;;;4.70;;
69305;SDS011;56427;51.580;4.656;2023-02-28T06:11:59;15.10;;;4.60;;
69305;SDS011;56427;51.580;4.656;2023-02-28T06:14:25;8.82;;;4.20;;
69305;SDS011;56427;51.580;4.656;2023-02-28T06:16:53;9.15;;;4.28;;
69305;SDS011;56427;51.580;4.656;2023-02-28T06:19:19;8.17;;;3.93;;
69305;SDS011;56427;51.580;4.656;2023-02-28T06:21:44;11.90;;;4.60;;
69305;SDS011;56427;51.580;4.656;2023-02-28T06:24:10;8.07;;;4.00;;
69305;SDS011;56427;51.580;4.656;2023-02-28T06:26:35;13.95;;;5.28;;
69305;SDS011;56427;51.580;4.656;2023-02-28T06:29:01;8.73;;;4.40;;
69305;SDS011;56427;51.580;4.656;2023-02-28T06:31:26;9.60;;;4.70;;
69305;SDS011;56427;51.580;4.656;2023-02-28T06:33:55;8.05;;;4.45;;
69305;SDS011;56427;51.580;4.656;2023-02-28T06:36:21;8.65;;;5.05;;
69305;SDS011;56427;51.580;4.656;2023-02-28T06:38:50;10.63;;;4.72;;
69305;SDS011;56427;51.580;4.656;2023-02-28T06:41:19;6.57;;;4.30;;
69305;SDS011;56427;51.580;4.656;2023-02-28T06:43:48;7.70;;;4.40;;
69305;SDS011;56427;51.580;4.656;2023-02-28T06:46:14;8.07;;;4.72;;
69305;SDS011;56427;51.580;4.656;2023-02-28T06:48:40;9.48;;;4.72;;
69305;SDS011;56427;51.580;4.656;2023-02-28T06:51:09;7.77;;;4.50;;
69305;SDS011;56427;51.580;4.656;2023-02-28T06:53:38;9.75;;;4.63;;
69305;SDS011;56427;51.580;4.656;2023-02-28T06:56:04;10.43;;;4.70;;
69305;SDS011;56427;51.580;4.656;2023-02-28T06:58:34;8.10;;;4.72;;
69305;SDS011;56427;51.580;4.656;2023-02-28T07:01:00;11.97;;;4.77;;
69305;SDS011;56427;51.580;4.656;2023-02-28T07:03:27;9.38;;;4.32;;
69305;SDS011;56427;51.580;4.656;2023-02-28T07:05:52;9.73;;;4.90;;
69305;SDS011;56427;51.580;4.656;2023-02-28T07:08:18;9.83;;;5.13;;
69305;SDS011;56427;51.580;4.656;2023-02-28T07:10:43;7.67;;;4.80;;
69305;SDS011;56427;51.580;4.656;2023-02-28T07:13:09;10.47;;;5.03;;
69305;SDS011;56427;51.580;4.656;2023-02-28T07:15:35;8.27;;;4.50;;
69305;SDS011;56427;51.580;4.656;2023-02-28T07:18:01;8.18;;;4.72;;
69305;SDS011;56427;51.580;4.656;2023-02-28T07:20:28;7.55;;;4.57;;
69305;SDS011;56427;51.580;4.656;2023-02-28T07:22:54;10.68;;;5.47;;
69305;SDS011;56427;51.580;4.656;2023-02-28T07:25:22;8.77;;;4.10;;
69305;SDS011;56427;51.580;4.656;2023-02-28T07:27:49;8.98;;;4.22;;
69305;SDS011;56427;51.580;4.656;2023-02-28T07:30:14;7.25;;;4.20;;
69305;SDS011;56427;51.580;4.656;2023-02-28T07:32:40;5.87;;;3.53;;
69305;SDS011;56427;51.580;4.656;2023-02-28T07:35:05;7.73;;;3.87;;
69305;SDS011;56427;51.580;4.656;2023-02-28T07:37:31;7.68;;;3.78;;
69305;SDS011;56427;51.580;4.656;2023-02-28T07:40:06;5.73;;;3.33;;
69305;SDS011;56427;51.580;4.656;2023-02-28T07:42:33;6.22;;;3.38;;
69305;SDS011;56427;51.580;4.656;2023-02-28T07:44:59;7.55;;;3.40;;
69305;SDS011;56427;51.580;4.656;2023-02-28T07:47:25;6.90;;;3.70;;
69305;SDS011;56427;51.580;4.656;2023-02-28T07:49:51;7.43;;;3.63;;
69305;SDS011;56427;51.580;4.656;2023-02-28T07:52:16;6.13;;;3.60;;
69305;SDS011;56427;51.580;4.656;2023-02-28T07:54:41;8.77;;;4.90;;
69305;SDS011;56427;51.580;4.656;2023-02-28T07:57:07;7.43;;;3.60;;
69305;SDS011;56427;51.580;4.656;2023-02-28T07:59:33;7.55;;;3.60;;
69305;SDS011;56427;51.580;4.656;2023-02-28T08:02:01;5.68;;;3.20;;
69305;SDS011;56427;51.580;4.656;2023-02-28T08:04:26;7.73;;;3.03;;
69305;SDS011;56427;51.580;4.656;2023-02-28T08:06:52;6.17;;;3.20;;
69305;SDS011;56427;51.580;4.656;2023-02-28T08:09:18;6.72;;;3.40;;
69305;SDS011;56427;51.580;4.656;2023-02-28T08:11:44;6.65;;;3.45;;
69305;SDS011;56427;51.580;4.656;2023-02-28T08:14:09;5.43;;;3.47;;
69305;SDS011;56427;51.580;4.656;2023-02-28T08:16:34;8.77;;;3.40;;
69305;SDS011;56427;51.580;4.656;2023-02-28T08:19:00;4.90;;;2.50;;
69305;SDS011;56427;51.580;4.656;2023-02-28T08:21:25;5.87;;;3.00;;
69305;SDS011;56427;51.580;4.656;2023-02-28T08:23:51;7.10;;;3.60;;
69305;SDS011;56427;51.580;4.656;2023-02-28T08:26:16;8.02;;;3.60;;
69305;SDS011;56427;51.580;4.656;2023-02-28T08:28:43;5.87;;;3.30;;
69305;SDS011;56427;51.580;4.656;2023-02-28T08:31:10;16.95;;;3.58;;
69305;SDS011;56427;51.580;4.656;2023-02-28T08:33:37;6.35;;;2.88;;
69305;SDS011;56427;51.580;4.656;2023-02-28T08:36:04;6.25;;;3.15;;
69305;SDS011;56427;51.580;4.656;2023-02-28T08:38:30;5.60;;;3.13;;
69305;SDS011;56427;51.580;4.656;2023-02-28T08:40:59;6.83;;;3.73;;
69305;SDS011;56427;51.580;4.656;2023-02-28T08:43:25;7.07;;;3.45;;
69305;SDS011;56427;51.580;4.656;2023-02-28T08:45:54;6.10;;;3.00;;
69305;SDS011;56427;51.580;4.656;2023-02-28T08:48:22;6.18;;;2.85;;
69305;SDS011;56427;51.580;4.656;2023-02-28T08:50:56;5.07;;;2.20;;
69305;SDS011;56427;51.580;4.656;2023-02-28T08:53:22;10.52;;;2.80;;
69305;SDS011;56427;51.580;4.656;2023-02-28T08:55:54;6.57;;;2.73;;
69305;SDS011;56427;51.580;4.656;2023-02-28T08:58:30;3.88;;;1.85;;
69305;SDS011;56427;51.580;4.656;2023-02-28T09:00:55;5.30;;;2.40;;
69305;SDS011;56427;51.580;4.656;2023-02-28T09:03:21;4.70;;;1.80;;
69305;SDS011;56427;51.580;4.656;2023-02-28T09:08:24;4.80;;;2.50;;
69305;SDS011;56427;51.580;4.656;2023-02-28T09:10:50;5.45;;;2.45;;
69305;SDS011;56427;51.580;4.656;2023-02-28T09:13:16;4.70;;;2.50;;
69305;SDS011;56427;51.580;4.656;2023-02-28T09:15:41;6.13;;;2.33;;
69305;SDS011;56427;51.580;4.656;2023-02-28T09:18:07;5.20;;;2.58;;
69305;SDS011;56427;51.580;4.656;2023-02-28T09:20:32;7.50;;;2.50;;
69305;SDS011;56427;51.580;4.656;2023-02-28T09:22:57;3.50;;;2.10;;
69305;SDS011;56427;51.580;4.656;2023-02-28T09:25:23;5.10;;;2.60;;
69305;SDS011;56427;51.580;4.656;2023-02-28T09:27:48;8.30;;;3.40;;
69305;SDS011;56427;51.580;4.656;2023-02-28T09:30:13;7.90;;;2.60;;
69305;SDS011;56427;51.580;4.656;2023-02-28T09:32:39;4.07;;;2.25;;
69305;SDS011;56427;51.580;4.656;2023-02-28T09:35:05;4.10;;;2.28;;
69305;SDS011;56427;51.580;4.656;2023-02-28T09:37:31;3.77;;;1.70;;
69305;SDS011;56427;51.580;4.656;2023-02-28T09:39:57;5.22;;;2.35;;
69305;SDS011;56427;51.580;4.656;2023-02-28T09:42:25;4.07;;;2.20;;
69305;SDS011;56427;51.580;4.656;2023-02-28T09:44:57;5.57;;;2.40;;
69305;SDS011;56427;51.580;4.656;2023-02-28T09:47:27;3.20;;;1.50;;
69305;SDS011;56427;51.580;4.656;2023-02-28T09:49:58;2.65;;;1.70;;
69305;SDS011;56427;51.580;4.656;2023-02-28T09:52:39;2.87;;;1.53;;
69305;SDS011;56427;51.580;4.656;2023-02-28T09:55:16;3.45;;;2.08;;
69305;SDS011;56427;51.580;4.656;2023-02-28T09:57:44;2.90;;;1.80;;
69305;SDS011;56427;51.580;4.656;2023-02-28T10:10:51;4.32;;;1.65;;
69305;SDS011;56427;51.580;4.656;2023-02-28T10:19:03;2.97;;;1.80;;
69305;SDS011;56427;51.580;4.656;2023-02-28T10:21:37;3.72;;;1.85;;
69305;SDS011;56427;51.580;4.656;2023-02-28T10:27:15;4.40;;;1.77;;
69305;SDS011;56427;51.580;4.656;2023-02-28T10:29:47;3.13;;;1.45;;
69305;SDS011;56427;51.580;4.656;2023-02-28T10:32:19;6.72;;;1.83;;
69305;SDS011;56427;51.580;4.656;2023-02-28T10:37:56;3.47;;;1.60;;
69305;SDS011;56427;51.580;4.656;2023-02-28T10:42:55;3.22;;;1.50;;
69305;SDS011;56427;51.580;4.656;2023-02-28T10:45:23;3.38;;;1.50;;
69305;SDS011;56427;51.580;4.656;2023-02-28T10:52:55;3.45;;;1.30;;
69305;SDS011;56427;51.580;4.656;2023-02-28T10:55:33;3.80;;;1.83;;
69305;SDS011;56427;51.580;4.656;2023-02-28T10:57:59;3.38;;;1.83;;
69305;SDS011;56427;51.580;4.656;2023-02-28T11:00:25;3.83;;;2.10;;
69305;SDS011;56427;51.580;4.656;2023-02-28T11:02:52;4.40;;;1.88;;
69305;SDS011;56427;51.580;4.656;2023-02-28T11:05:50;4.90;;;1.90;;
69305;SDS011;56427;51.580;4.656;2023-02-28T11:08:13;2.80;;;1.40;;
69305;SDS011;56427;51.580;4.656;2023-02-28T11:10:44;3.00;;;1.63;;
69305;SDS011;56427;51.580;4.656;2023-02-28T11:13:19;4.63;;;1.80;;
69305;SDS011;56427;51.580;4.656;2023-02-28T11:15:54;5.50;;;1.85;;
69305;SDS011;56427;51.580;4.656;2023-02-28T11:20:59;2.78;;;1.50;;
69305;SDS011;56427;51.580;4.656;2023-02-28T11:23:30;3.13;;;1.70;;
69305;SDS011;56427;51.580;4.656;2023-02-28T11:26:00;3.33;;;1.37;;
69305;SDS011;56427;51.580;4.656;2023-02-28T11:28:28;2.80;;;1.52;;
69305;SDS011;56427;51.580;4.656;2023-02-28T11:33:52;5.82;;;2.50;;
69305;SDS011;56427;51.580;4.656;2023-02-28T11:36:23;3.42;;;1.75;;
69305;SDS011;56427;51.580;4.656;2023-02-28T11:38:50;3.40;;;1.50;;
69305;SDS011;56427;51.580;4.656;2023-02-28T11:57:51;3.60;;;1.55;;
69305;SDS011;56427;51.580;4.656;2023-02-28T12:03:26;3.53;;;1.50;;
69305;SDS011;56427;51.580;4.656;2023-02-28T12:06:09;4.03;;;1.33;;
69305;SDS011;56427;51.580;4.656;2023-02-28T12:09:04;3.83;;;1.40;;
69305;SDS011;56427;51.580;4.656;2023-02-28T12:11:53;3.72;;;1.75;;
69305;SDS011;56427;51.580;4.656;2023-02-28T12:26:01;4.97;;;1.50;;
69305;SDS011;56427;51.580;4.656;2023-02-28T12:28:35;4.00;;;1.45;;
69305;SDS011;56427;51.580;4.656;2023-02-28T12:33:50;2.70;;;1.30;;
69305;SDS011;56427;51.580;4.656;2023-02-28T12:36:19;3.78;;;1.88;;
69305;SDS011;56427;51.580;4.656;2023-02-28T12:39:08;3.65;;;1.55;;
69305;SDS011;56427;51.580;4.656;2023-02-28T12:41:42;4.25;;;1.88;;
69305;SDS011;56427;51.580;4.656;2023-02-28T12:46:46;3.95;;;1.90;;
69305;SDS011;56427;51.580;4.656;2023-02-28T12:49:34;2.42;;;1.48;;
69305;SDS011;56427;51.580;4.656;2023-02-28T12:52:07;2.63;;;1.63;;
69305;SDS011;56427;51.580;4.656;2023-02-28T13:00:13;2.95;;;1.38;;
69305;SDS011;56427;51.580;4.656;2023-02-28T13:03:05;3.40;;;1.95;;
69305;SDS011;56427;51.580;4.656;2023-02-28T13:11:26;3.45;;;1.70;;
69305;SDS011;56427;51.580;4.656;2023-02-28T13:14:43;5.00;;;1.70;;
69305;SDS011;56427;51.580;4.656;2023-02-28T13:19:36;3.40;;;1.90;;
69305;SDS011;56427;51.580;4.656;2023-02-28T13:22:18;3.85;;;1.70;;
69305;SDS011;56427;51.580;4.656;2023-02-28T13:25:49;3.47;;;1.58;;
69305;SDS011;56427;51.580;4.656;2023-02-28T13:27:53;4.07;;;1.63;;
69305;SDS011;56427;51.580;4.656;2023-02-28T13:35:44;2.90;;;1.70;;
69305;SDS011;56427;51.580;4.656;2023-02-28T13:38:21;4.57;;;1.50;;
69305;SDS011;56427;51.580;4.656;2023-02-28T13:40:49;2.90;;;1.65;;
69305;SDS011;56427;51.580;4.656;2023-02-28T13:43:16;3.73;;;1.97;;
69305;SDS011;56427;51.580;4.656;2023-02-28T13:46:03;4.30;;;1.85;;
69305;SDS011;56427;51.580;4.656;2023-02-28T13:48:34;3.45;;;1.63;;
69305;SDS011;56427;51.580;4.656;2023-02-28T13:51:00;3.87;;;1.80;;
69305;SDS011;56427;51.580;4.656;2023-02-28T14:05:45;2.50;;;1.45;;
69305;SDS011;56427;51.580;4.656;2023-02-28T14:08:18;7.73;;;2.23;;
69305;SDS011;56427;51.580;4.656;2023-02-28T14:10:51;4.15;;;1.90;;
69305;SDS011;56427;51.580;4.656;2023-02-28T14:13:41;4.70;;;1.98;;
69305;SDS011;56427;51.580;4.656;2023-02-28T14:16:16;3.65;;;2.00;;
69305;SDS011;56427;51.580;4.656;2023-02-28T14:18:49;3.08;;;1.70;;
69305;SDS011;56427;51.580;4.656;2023-02-28T14:21:24;4.77;;;2.33;;
69305;SDS011;56427;51.580;4.656;2023-02-28T14:37:52;3.47;;;2.13;;
69305;SDS011;56427;51.580;4.656;2023-02-28T14:40:32;2.70;;;1.73;;
69305;SDS011;56427;51.580;4.656;2023-02-28T14:43:01;8.52;;;2.88;;
69305;SDS011;56427;51.580;4.656;2023-02-28T14:45:29;2.72;;;1.63;;
69305;SDS011;56427;51.580;4.656;2023-02-28T14:47:56;3.60;;;1.67;;
69305;SDS011;56427;51.580;4.656;2023-02-28T14:50:33;4.63;;;1.90;;
69305;SDS011;56427;51.580;4.656;2023-02-28T14:53:03;4.35;;;2.55;;
69305;SDS011;56427;51.580;4.656;2023-02-28T14:55:43;5.72;;;2.50;;
69305;SDS011;56427;51.580;4.656;2023-02-28T14:58:18;6.03;;;1.80;;
69305;SDS011;56427;51.580;4.656;2023-02-28T15:00:48;4.13;;;2.30;;
69305;SDS011;56427;51.580;4.656;2023-02-28T15:03:28;4.70;;;1.80;;
69305;SDS011;56427;51.580;4.656;2023-02-28T15:05:55;3.17;;;1.92;;
69305;SDS011;56427;51.580;4.656;2023-02-28T15:08:23;3.65;;;2.33;;
69305;SDS011;56427;51.580;4.656;2023-02-28T15:13:17;3.67;;;2.20;;
69305;SDS011;56427;51.580;4.656;2023-02-28T15:15:55;3.90;;;2.30;;
69305;SDS011;56427;51.580;4.656;2023-02-28T15:21:27;3.67;;;2.20;;
69305;SDS011;56427;51.580;4.656;2023-02-28T15:26:49;4.73;;;2.23;;
69305;SDS011;56427;51.580;4.656;2023-02-28T15:29:19;3.75;;;1.90;;
69305;SDS011;56427;51.580;4.656;2023-02-28T15:31:48;3.17;;;2.20;;
69305;SDS011;56427;51.580;4.656;2023-02-28T15:34:20;4.78;;;2.20;;
69305;SDS011;56427;51.580;4.656;2023-02-28T15:36:54;4.15;;;2.10;;
69305;SDS011;56427;51.580;4.656;2023-02-28T15:39:24;3.07;;;1.80;;
69305;SDS011;56427;51.580;4.656;2023-02-28T15:42:10;4.40;;;2.40;;
69305;SDS011;56427;51.580;4.656;2023-02-28T15:44:46;6.47;;;2.43;;
69305;SDS011;56427;51.580;4.656;2023-02-28T15:47:33;2.88;;;1.60;;
69305;SDS011;56427;51.580;4.656;2023-02-28T15:50:01;4.03;;;2.03;;
69305;SDS011;56427;51.580;4.656;2023-02-28T15:57:38;5.03;;;2.25;;
69305;SDS011;56427;51.580;4.656;2023-02-28T16:00:06;5.75;;;2.53;;
69305;SDS011;56427;51.580;4.656;2023-02-28T16:02:37;4.15;;;2.50;;
69305;SDS011;56427;51.580;4.656;2023-02-28T16:07:36;3.85;;;2.03;;
69305;SDS011;56427;51.580;4.656;2023-02-28T16:10:06;4.93;;;2.08;;
69305;SDS011;56427;51.580;4.656;2023-02-28T16:12:37;3.38;;;2.20;;
69305;SDS011;56427;51.580;4.656;2023-02-28T16:17:50;4.57;;;2.35;;
69305;SDS011;56427;51.580;4.656;2023-02-28T16:22:43;7.00;;;2.53;;
69305;SDS011;56427;51.580;4.656;2023-02-28T16:25:12;4.57;;;2.43;;
69305;SDS011;56427;51.580;4.656;2023-02-28T16:27:39;5.07;;;2.65;;
69305;SDS011;56427;51.580;4.656;2023-02-28T16:30:05;4.63;;;2.28;;
69305;SDS011;56427;51.580;4.656;2023-02-28T16:32:34;4.25;;;2.22;;
69305;SDS011;56427;51.580;4.656;2023-02-28T16:35:01;5.00;;;2.53;;
69305;SDS011;56427;51.580;4.656;2023-02-28T16:37:27;2.95;;;1.27;;
69305;SDS011;56427;51.580;4.656;2023-02-28T16:39:53;4.53;;;2.43;;
69305;SDS011;56427;51.580;4.656;2023-02-28T16:42:22;3.93;;;2.00;;
69305;SDS011;56427;51.580;4.656;2023-02-28T16:44:52;6.18;;;2.17;;
69305;SDS011;56427;51.580;4.656;2023-02-28T16:47:18;5.05;;;2.10;;
69305;SDS011;56427;51.580;4.656;2023-02-28T16:49:44;3.13;;;1.80;;
69305;SDS011;56427;51.580;4.656;2023-02-28T16:52:10;4.07;;;2.00;;
69305;SDS011;56427;51.580;4.656;2023-02-28T16:54:37;3.92;;;2.10;;
69305;SDS011;56427;51.580;4.656;2023-02-28T16:57:03;3.65;;;1.80;;
69305;SDS011;56427;51.580;4.656;2023-02-28T16:59:30;3.65;;;1.70;;
69305;SDS011;56427;51.580;4.656;2023-02-28T17:01:56;6.03;;;2.33;;
69305;SDS011;56427;51.580;4.656;2023-02-28T17:04:23;4.88;;;2.85;;
69305;SDS011;56427;51.580;4.656;2023-02-28T17:06:49;5.93;;;2.60;;
69305;SDS011;56427;51.580;4.656;2023-02-28T17:09:20;5.72;;;2.47;;
69305;SDS011;56427;51.580;4.656;2023-02-28T17:11:47;5.07;;;2.55;;
69305;SDS011;56427;51.580;4.656;2023-02-28T17:14:12;7.75;;;2.80;;
69305;SDS011;56427;51.580;4.656;2023-02-28T17:16:38;8.77;;;2.13;;
69305;SDS011;56427;51.580;4.656;2023-02-28T17:19:14;4.93;;;2.00;;
69305;SDS011;56427;51.580;4.656;2023-02-28T17:21:41;6.60;;;2.83;;
69305;SDS011;56427;51.580;4.656;2023-02-28T17:24:07;5.45;;;2.53;;
69305;SDS011;56427;51.580;4.656;2023-02-28T17:26:33;5.55;;;2.60;;
69305;SDS011;56427;51.580;4.656;2023-02-28T17:28:58;4.83;;;2.70;;
69305;SDS011;56427;51.580;4.656;2023-02-28T17:31:25;4.83;;;2.40;;
69305;SDS011;56427;51.580;4.656;2023-02-28T17:33:51;4.90;;;2.30;;
69305;SDS011;56427;51.580;4.656;2023-02-28T17:36:21;3.60;;;2.30;;
69305;SDS011;56427;51.580;4.656;2023-02-28T17:38:52;5.13;;;2.65;;
69305;SDS011;56427;51.580;4.656;2023-02-28T17:41:20;6.95;;;2.50;;
69305;SDS011;56427;51.580;4.656;2023-02-28T17:43:46;4.23;;;2.23;;
69305;SDS011;56427;51.580;4.656;2023-02-28T17:46:16;5.00;;;2.42;;
69305;SDS011;56427;51.580;4.656;2023-02-28T17:48:50;5.00;;;2.70;;
69305;SDS011;56427;51.580;4.656;2023-02-28T17:51:18;5.13;;;2.70;;
69305;SDS011;56427;51.580;4.656;2023-02-28T17:53:45;7.18;;;2.97;;
69305;SDS011;56427;51.580;4.656;2023-02-28T17:56:12;4.70;;;2.92;;
69305;SDS011;56427;51.580;4.656;2023-02-28T17:58:39;3.87;;;2.47;;
69305;SDS011;56427;51.580;4.656;2023-02-28T18:01:04;5.05;;;3.00;;